Time;durP1;ratioP1;P1;durP2;ratioP2;P2;SDS_P1;SDS_P2;PMS_P1;PMS_P2;Temp;Humidity;BMP_temperature;BMP_pressure;BME280_temperature;BME280_humidity;BME280_pressure;Samples;Min_cycle;Max_cycle;Signal;HPM_P1;HPM_P2
2021/06/23 00:01:11;;;;;;;;;;;;;;;22.81;46.81;101315.25;2060998;28;4134;-73
2021/06/23 00:02:37;;;;;;;;;;;;;;;22.81;46.72;101313.22;2062199;28;4827;-74
2021/06/23 00:04:04;;;;;;;;;;;;;;;22.75;46.64;101319.53;2061839;28;4129;-74
2021/06/23 00:05:30;;;;;;;;;;;;;;;22.73;46.84;101313.34;2061013;28;4204;-73
2021/06/23 00:06:57;;;;;;;;;;;;;;;22.78;46.75;101304.56;2062505;28;4023;-73
2021/06/23 00:08:23;;;;;;;;;;;;;;;22.76;46.49;101298.38;2062382;28;4241;-73
2021/06/23 00:09:50;;;;;;;;;;;;;;;22.76;46.49;101292.66;2061171;28;4182;-73
2021/06/23 00:11:16;;;;;;;;;;;;;;;22.75;46.71;101291.84;2060670;28;4275;-72
2021/06/23 00:12:43;;;;;;;;;;;;;;;22.78;46.74;101293.97;2060556;28;4023;-72
2021/06/23 00:14:09;;;;;;;;;;;;;;;22.80;46.66;101287.91;2061784;28;3987;-71
2021/06/23 00:15:36;;;;;;;;;;;;;;;22.80;46.71;101287.91;2060563;28;4023;-72
2021/06/23 00:17:02;;;;;;;;;;;;;;;22.77;46.35;101294.31;2061261;28;3959;-72
2021/06/23 00:18:28;;;;;;;;;;;;;;;22.70;46.61;101294.09;2061051;28;3850;-72
2021/06/23 00:19:54;;;;;;;;;;;;;;;22.70;46.53;101302.66;2062529;28;4231;-72
2021/06/23 00:21:20;;;;;;;;;;;;;;;22.68;46.75;101294.44;2061879;28;4423;-72
2021/06/23 00:22:47;;;;;;;;;;;;;;;22.71;46.76;101293.72;2063126;28;4344;-72
2021/06/23 00:24:14;;;;;;;;;;;;;;;22.71;46.83;101290.03;2062370;28;3913;-71
2021/06/23 00:25:40;;;;;;;;;;;;;;;22.69;46.76;101290.41;2059897;28;4174;-71
2021/06/23 00:27:07;;;;;;;;;;;;;;;22.66;46.96;101293.94;2062039;28;3880;-71
2021/06/23 00:28:34;;;;;;;;;;;;;;;22.65;46.77;101303.69;2060916;28;4248;-71
2021/06/23 00:30:00;;;;;;;;;;;;;;;22.59;46.89;101297.38;2060766;28;3928;-71
2021/06/23 00:31:26;;;;;;;;;;;;;;;22.56;46.79;101300.13;2060895;28;4030;-72
2021/06/23 00:32:53;;;;;;;;;;;;;;;22.57;46.85;101302.59;2060671;28;4177;-72
2021/06/23 00:34:20;;;;;;;;;;;;;;;22.56;46.94;101297.25;2062462;28;4053;-71
2021/06/23 00:35:47;;;;;;;;;;;;;;;22.59;46.86;101294.53;2060446;28;4073;-71
2021/06/23 00:37:14;;;;;;;;;;;;;;;22.58;46.78;101294.91;2060607;28;4109;-71
2021/06/23 00:38:41;;;;;;;;;;;;;;;22.50;46.62;101302.34;2060305;28;4030;-72
2021/06/23 00:40:07;;;;;;;;;;;;;;;22.51;46.44;101295.47;2061551;28;5008;-73
2021/06/23 00:41:34;;;;;;;;;;;;;;;22.51;46.54;101291.78;2060065;28;4023;-72
2021/06/23 00:43:00;;;;;;;;;;;;;;;22.50;46.38;101295.81;2061559;28;3912;-71
2021/06/23 00:44:26;;;;;;;;;;;;;;;22.50;46.35;101295.81;2059194;28;4109;-73
2021/06/23 00:45:53;;;;;;;;;;;;;;;22.48;46.54;101304.72;2059877;28;4212;-71
2021/06/23 00:47:20;;;;;;;;;;;;;;;22.52;46.70;101311.38;2061265;28;4423;-73
2021/06/23 00:48:46;;;;;;;;;;;;;;;22.53;46.51;101317.94;2060855;28;4055;-72
2021/06/23 00:50:12;;;;;;;;;;;;;;;22.53;46.59;101317.94;2060145;28;4072;-72
2021/06/23 00:51:39;;;;;;;;;;;;;;;22.55;46.69;101330.66;2060456;28;5113;-72
2021/06/23 00:53:05;;;;;;;;;;;;;;;22.52;46.44;101328.47;2061477;28;3929;-72
2021/06/23 00:54:31;;;;;;;;;;;;;;;22.51;46.39;101328.84;2060277;28;4069;-72
2021/06/23 00:55:58;;;;;;;;;;;;;;;22.50;46.50;101328.03;2059799;28;4294;-73
2021/06/23 00:57:24;;;;;;;;;;;;;;;22.45;46.38;101331.09;2060533;28;3995;-72
2021/06/23 00:58:51;;;;;;;;;;;;;;;22.41;46.51;101322.41;2061166;28;4206;-73
2021/06/23 01:00:17;;;;;;;;;;;;;;;22.40;46.38;101331.31;2058924;28;3905;-73
2021/06/23 01:01:43;;;;;;;;;;;;;;;22.42;46.31;101337.50;2060245;28;4196;-72
2021/06/23 01:03:10;;;;;;;;;;;;;;;22.41;46.16;101341.50;2060625;28;4078;-71
2021/06/23 01:04:37;;;;;;;;;;;;;;;22.38;46.38;101333.66;2062682;28;4175;-72
2021/06/23 01:06:03;;;;;;;;;;;;;;;22.37;46.15;101340.56;2059534;28;4094;-71
2021/06/23 01:07:30;;;;;;;;;;;;;;;22.36;46.19;101348.28;2060837;28;4234;-72
2021/06/23 01:08:56;;;;;;;;;;;;;;;22.34;46.42;101344.13;2060608;28;3934;-72
2021/06/23 01:10:22;;;;;;;;;;;;;;;22.41;46.42;101338.66;2061604;28;3900;-71
2021/06/23 01:11:49;;;;;;;;;;;;;;;22.48;46.39;101329.56;2060898;28;4195;-74
2021/06/23 01:13:15;;;;;;;;;;;;;;;22.52;46.37;101328.47;2061079;28;3964;-72
2021/06/23 01:14:41;;;;;;;;;;;;;;;22.57;46.49;101330.28;2061264;28;4186;-74
2021/06/23 01:16:08;;;;;;;;;;;;;;;22.57;46.67;101318.88;2061299;28;4107;-80
2021/06/23 01:17:35;;;;;;;;;;;;;;;22.63;46.64;101328.88;2061320;28;4018;-75
2021/06/23 01:19:02;;;;;;;;;;;;;;;22.63;46.49;101324.03;2061007;28;3897;-75
2021/06/23 01:20:28;;;;;;;;;;;;;;;22.63;46.58;101312.63;2060929;28;4124;-75
2021/06/23 01:21:55;;;;;;;;;;;;;;;22.64;46.67;101316.31;2060757;28;4198;-74
2021/06/23 01:23:21;;;;;;;;;;;;;;;22.66;46.75;101317.63;2061276;28;3857;-82
2021/06/23 01:24:47;;;;;;;;;;;;;;;22.68;46.79;101322.94;2060442;28;3992;-71
2021/06/23 01:26:14;;;;;;;;;;;;;;;22.70;46.83;101331.16;2062000;28;4076;-72
2021/06/23 01:27:40;;;;;;;;;;;;;;;22.71;46.89;101335.69;2057868;28;4244;-73
2021/06/23 01:29:07;;;;;;;;;;;;;;;22.72;46.94;101340.22;2060153;28;4003;-72
2021/06/23 01:30:34;;;;;;;;;;;;;;;22.75;46.95;101359.47;2058357;28;4727;-72
2021/06/23 01:32:00;;;;;;;;;;;;;;;22.76;47.04;101369.69;2059047;28;4339;-72
2021/06/23 01:33:26;;;;;;;;;;;;;;;22.77;47.14;101369.34;2060988;28;4065;-73
2021/06/23 01:34:52;;;;;;;;;;;;;;;22.77;47.05;101366.50;2061691;28;4049;-72
2021/06/23 01:36:18;;;;;;;;;;;;;;;22.80;47.07;101359.22;2061447;28;3964;-73
2021/06/23 01:37:44;;;;;;;;;;;;;;;22.81;46.91;101346.66;2061234;28;4150;-73
2021/06/23 01:39:10;;;;;;;;;;;;;;;22.81;47.05;101336.06;2060698;28;4070;-73
2021/06/23 01:40:36;;;;;;;;;;;;;;;22.83;47.24;101335.72;2060670;28;4172;-73
2021/06/23 01:42:03;;;;;;;;;;;;;;;22.82;47.24;101334.84;2060879;28;4033;-73
2021/06/23 01:43:30;;;;;;;;;;;;;;;22.84;47.27;101341.06;2061016;28;4389;-73
2021/06/23 01:44:57;;;;;;;;;;;;;;;22.86;47.15;101343.56;2061824;28;4083;-73
2021/06/23 01:46:23;;;;;;;;;;;;;;;22.86;47.25;101335.00;2061164;28;3860;-72
2021/06/23 01:47:50;;;;;;;;;;;;;;;22.88;47.31;101338.31;2060123;28;4216;-73
2021/06/23 01:49:16;;;;;;;;;;;;;;;22.90;47.24;101333.09;2061670;28;3861;-73
2021/06/23 01:50:42;;;;;;;;;;;;;;;22.91;47.47;101346.19;2061414;28;4010;-73
2021/06/23 01:52:08;;;;;;;;;;;;;;;22.92;47.38;101353.56;2061012;28;3848;-73
2021/06/23 01:53:35;;;;;;;;;;;;;;;22.93;47.38;101354.38;2060544;28;4379;-73
2021/06/23 01:55:02;;;;;;;;;;;;;;;22.94;47.41;101358.91;2059738;28;3906;-74
2021/06/23 01:56:29;;;;;;;;;;;;;;;22.95;47.38;101360.59;2060633;28;4085;-73
2021/06/23 01:57:56;;;;;;;;;;;;;;;22.96;47.57;101370.81;2060932;28;4123;-73
2021/06/23 01:59:22;;;;;;;;;;;;;;;22.96;47.54;101362.28;2060756;28;4121;-73
2021/06/23 02:00:49;;;;;;;;;;;;;;;22.97;47.54;101367.63;2059894;28;4059;-71
2021/06/23 02:02:16;;;;;;;;;;;;;;;22.97;47.47;101373.34;2062675;28;4098;-71
2021/06/23 02:03:43;;;;;;;;;;;;;;;22.98;47.52;101377.84;2062305;28;3986;-71
2021/06/23 02:05:10;;;;;;;;;;;;;;;23.00;47.65;101377.50;2062120;28;4078;-71
2021/06/23 02:06:37;;;;;;;;;;;;;;;23.00;47.68;101384.03;2062270;28;4082;-72
2021/06/23 02:08:04;;;;;;;;;;;;;;;23.00;47.57;101384.03;2061932;28;5098;-73
2021/06/23 02:09:30;;;;;;;;;;;;;;;23.01;47.69;101385.69;2061982;28;4280;-73
2021/06/23 02:10:57;;;;;;;;;;;;;;;23.02;47.58;101387.38;2061384;28;4061;-72
2021/06/23 02:12:24;;;;;;;;;;;;;;;23.03;47.82;101385.38;2064120;28;3774;-72
2021/06/23 02:13:50;;;;;;;;;;;;;;;23.04;47.86;101385.00;2062779;28;4216;-72
2021/06/23 02:15:16;;;;;;;;;;;;;;;23.04;47.75;101385.00;2062298;28;4135;-72
2021/06/23 02:16:42;;;;;;;;;;;;;;;23.05;47.91;101380.16;2061378;28;4222;-71
2021/06/23 02:18:08;;;;;;;;;;;;;;;23.06;47.88;101390.34;2061891;28;4134;-73
2021/06/23 02:19:34;;;;;;;;;;;;;;;23.05;47.82;101378.13;2061734;28;4210;-73
2021/06/23 02:21:00;;;;;;;;;;;;;;;23.07;47.90;101377.75;2061945;28;3931;-73
2021/06/23 02:22:27;;;;;;;;;;;;;;;23.07;47.94;101372.03;2062112;28;3779;-73
2021/06/23 02:23:54;;;;;;;;;;;;;;;23.07;47.89;101370.03;2060774;28;4222;-73
2021/06/23 02:25:20;;;;;;;;;;;;;;;23.08;47.98;101370.88;2062361;28;3918;-73
2021/06/23 02:26:46;;;;;;;;;;;;;;;23.09;47.90;101366.81;2061169;28;4193;-73
2021/06/23 02:28:12;;;;;;;;;;;;;;;23.09;48.03;101363.97;2062117;28;3990;-73
2021/06/23 02:29:39;;;;;;;;;;;;;;;23.11;47.95;101362.41;2063205;28;4058;-73
2021/06/23 02:31:05;;;;;;;;;;;;;;;23.11;48.13;101361.59;2062917;28;4082;-73
2021/06/23 02:32:32;;;;;;;;;;;;;;;23.10;48.03;101360.75;2060373;28;4206;-73
2021/06/23 02:33:58;;;;;;;;;;;;;;;23.12;48.04;101366.09;2062356;28;4108;-73
2021/06/23 02:35:24;;;;;;;;;;;;;;;23.12;48.05;101363.25;2063144;28;4098;-72
2021/06/23 02:36:50;;;;;;;;;;;;;;;23.12;48.08;101375.50;2061468;28;4779;-73
2021/06/23 02:38:16;;;;;;;;;;;;;;;23.12;48.16;101378.34;2062332;28;4093;-72
2021/06/23 02:39:42;;;;;;;;;;;;;;;23.14;48.02;101380.88;2062160;28;4008;-72
2021/06/23 02:41:09;;;;;;;;;;;;;;;23.13;48.09;101382.06;2063122;28;4254;-72
2021/06/23 02:42:36;;;;;;;;;;;;;;;23.14;48.09;101380.03;2061820;28;4160;-73
2021/06/23 02:44:02;;;;;;;;;;;;;;;23.15;48.12;101388.22;2062184;28;4287;-73
2021/06/23 02:45:29;;;;;;;;;;;;;;;23.15;48.18;101390.25;2062167;28;3942;-74
2021/06/23 02:46:56;;;;;;;;;;;;;;;23.15;48.10;101399.66;2060662;28;4317;-74
2021/06/23 02:48:22;;;;;;;;;;;;;;;23.17;48.12;101396.44;2062256;28;4038;-74
2021/06/23 02:49:49;;;;;;;;;;;;;;;23.16;48.13;101406.19;2060545;28;4145;-74
2021/06/23 02:51:15;;;;;;;;;;;;;;;23.17;48.36;101405.00;2062900;28;4280;-74
2021/06/23 02:52:41;;;;;;;;;;;;;;;23.17;48.16;101403.00;2062137;28;4888;-74
2021/06/23 02:54:08;;;;;;;;;;;;;;;23.18;48.17;101400.97;2062456;28;4089;-73
2021/06/23 02:55:35;;;;;;;;;;;;;;;23.18;48.30;101398.09;2062006;28;4209;-73
2021/06/23 02:57:02;;;;;;;;;;;;;;;23.19;48.30;101403.47;2061667;28;4077;-73
2021/06/23 02:58:28;;;;;;;;;;;;;;;23.19;48.16;101394.09;2062413;28;4040;-74
2021/06/23 02:59:55;;;;;;;;;;;;;;;23.19;48.17;101386.34;2062489;28;5081;-72
2021/06/23 03:01:21;;;;;;;;;;;;;;;23.21;48.18;101385.97;2062084;28;3919;-72
2021/06/23 03:02:48;;;;;;;;;;;;;;;23.21;48.31;101383.13;2061770;28;5355;-72
2021/06/23 03:04:15;;;;;;;;;;;;;;;23.20;48.26;101375.75;2062099;28;3933;-73
2021/06/23 03:05:41;;;;;;;;;;;;;;;23.22;48.23;101390.50;2062026;28;4072;-74
2021/06/23 03:07:08;;;;;;;;;;;;;;;23.22;48.19;101381.94;2061881;28;4290;-74
2021/06/23 03:08:34;;;;;;;;;;;;;;;23.22;48.21;101381.94;2059556;28;4197;-74
2021/06/23 03:10:00;;;;;;;;;;;;;;;23.22;48.21;101391.34;2060792;28;4179;-73
2021/06/23 03:11:27;;;;;;;;;;;;;;;23.24;48.38;101396.69;2061991;28;4053;-74
2021/06/23 03:12:53;;;;;;;;;;;;;;;23.23;48.25;101398.72;2060850;28;4217;-73
2021/06/23 03:14:19;;;;;;;;;;;;;;;23.23;48.39;101395.03;2061933;28;4078;-75
2021/06/23 03:15:46;;;;;;;;;;;;;;;23.24;48.34;101402.38;2062096;28;5094;-75
2021/06/23 03:17:13;;;;;;;;;;;;;;;23.23;48.38;101393.00;2062674;28;4091;-74
2021/06/23 03:18:39;;;;;;;;;;;;;;;23.24;48.26;101406.09;2061784;28;4032;-75
2021/06/23 03:20:06;;;;;;;;;;;;;;;23.24;48.40;101406.09;2062271;28;3923;-75
2021/06/23 03:21:32;;;;;;;;;;;;;;;23.25;48.31;101415.50;2061892;28;4007;-75
2021/06/23 03:22:59;;;;;;;;;;;;;;;23.25;48.33;101424.06;2060567;28;4145;-75
2021/06/23 03:24:26;;;;;;;;;;;;;;;23.25;48.43;101424.88;2062449;28;3955;-75
2021/06/23 03:25:52;;;;;;;;;;;;;;;23.26;48.38;101434.28;2061223;28;4322;-77
2021/06/23 03:27:18;;;;;;;;;;;;;;;23.26;48.36;101422.84;2062434;28;3924;-75
2021/06/23 03:28:44;;;;;;;;;;;;;;;23.26;48.36;101420.84;2061518;28;4774;-76
2021/06/23 03:30:11;;;;;;;;;;;;;;;23.27;48.38;101427.41;2061376;28;4128;-76
2021/06/23 03:31:37;;;;;;;;;;;;;;;23.27;48.31;101433.94;2061051;28;4215;-75
2021/06/23 03:33:04;;;;;;;;;;;;;;;23.27;48.34;101436.78;2061237;28;3827;-75
2021/06/23 03:34:31;;;;;;;;;;;;;;;23.27;48.37;101435.97;2062673;28;4363;-75
2021/06/23 03:35:57;;;;;;;;;;;;;;;23.27;48.42;101431.09;2061820;28;3925;-75
2021/06/23 03:37:23;;;;;;;;;;;;;;;23.28;48.43;101444.16;2062948;28;3920;-74
2021/06/23 03:38:49;;;;;;;;;;;;;;;23.29;48.42;101442.13;2059445;28;4290;-75
2021/06/23 03:40:15;;;;;;;;;;;;;;;23.28;48.44;101452.72;2062508;28;3928;-75
2021/06/23 03:41:41;;;;;;;;;;;;;;;23.29;48.48;101450.69;2061114;28;4214;-74
2021/06/23 03:43:08;;;;;;;;;;;;;;;23.29;48.48;101453.56;2062589;28;3782;-75
2021/06/23 03:44:41;;;;;;;;;;;;;;;23.29;48.39;101456.41;2061861;28;4039;-79
2021/06/23 03:46:09;;;;;;;;;;;;;;;23.29;48.46;101454.38;2062015;28;3891;-76
2021/06/23 03:47:36;;;;;;;;;;;;;;;23.30;48.49;101443.81;2061482;28;4213;-78
2021/06/23 03:49:03;;;;;;;;;;;;;;;23.29;48.51;101445.81;2062271;28;3966;-78
2021/06/23 03:50:31;;;;;;;;;;;;;;;23.30;48.56;101441.78;2062043;28;3909;-78
2021/06/23 03:51:58;;;;;;;;;;;;;;;23.29;48.56;101442.97;2062586;28;4137;-78
2021/06/23 03:53:24;;;;;;;;;;;;;;;23.30;48.61;101440.97;2061750;28;3914;-77
2021/06/23 03:54:51;;;;;;;;;;;;;;;23.31;48.46;101448.34;2062914;28;4014;-79
2021/06/23 03:56:17;;;;;;;;;;;;;;;23.31;48.52;101436.91;2061392;28;3980;-78
2021/06/23 03:57:44;;;;;;;;;;;;;;;23.30;48.53;101444.66;2060865;28;4394;-78
2021/06/23 03:59:11;;;;;;;;;;;;;;;23.30;48.48;101449.53;2061974;28;3943;-78
2021/06/23 04:00:37;;;;;;;;;;;;;;;23.31;48.58;101452.00;2062252;28;4057;-79
2021/06/23 04:02:04;;;;;;;;;;;;;;;23.31;48.64;101452.00;2061648;28;3929;-79
2021/06/23 04:03:30;;;;;;;;;;;;;;;23.31;48.59;101443.44;2061476;28;4171;-78
2021/06/23 04:04:56;;;;;;;;;;;;;;;23.31;48.58;101445.47;2062072;28;4123;-79
2021/06/23 04:06:22;;;;;;;;;;;;;;;23.31;48.58;101443.44;2061392;28;3878;-79
2021/06/23 04:07:48;;;;;;;;;;;;;;;23.32;48.58;101441.41;2060645;28;3986;-78
2021/06/23 04:09:15;;;;;;;;;;;;;;;23.32;48.59;101441.41;2062254;28;4033;-76
2021/06/23 04:10:42;;;;;;;;;;;;;;;23.32;48.58;101448.00;2061116;28;4004;-76
2021/06/23 04:12:09;;;;;;;;;;;;;;;23.32;48.60;101450.84;2061520;28;3918;-76
2021/06/23 04:13:36;;;;;;;;;;;;;;;23.32;48.58;101453.69;2061508;28;4216;-76
2021/06/23 04:15:03;;;;;;;;;;;;;;;23.32;48.51;101453.69;2061630;28;3905;-76
2021/06/23 04:16:30;;;;;;;;;;;;;;;23.33;48.56;101448.81;2060908;28;4349;-76
2021/06/23 04:17:57;;;;;;;;;;;;;;;23.33;48.63;101454.53;2062411;28;4075;-76
2021/06/23 04:19:23;;;;;;;;;;;;;;;23.33;48.63;101458.22;2062173;28;3946;-76
2021/06/23 04:20:50;;;;;;;;;;;;;;;23.33;48.79;101460.25;2061092;28;4213;-77
2021/06/23 04:22:16;;;;;;;;;;;;;;;23.32;48.65;101465.13;2061335;28;3870;-76
2021/06/23 04:23:42;;;;;;;;;;;;;;;23.33;48.72;101465.94;2061844;28;4233;-74
2021/06/23 04:25:09;;;;;;;;;;;;;;;23.32;48.68;101467.97;2060862;28;4044;-74
2021/06/23 04:26:36;;;;;;;;;;;;;;;23.33;48.68;101469.63;2060710;28;4227;-74
2021/06/23 04:28:02;;;;;;;;;;;;;;;23.34;48.76;101473.31;2061011;28;4263;-74
2021/06/23 04:29:28;;;;;;;;;;;;;;;23.33;48.59;101471.66;2061172;28;3938;-74
2021/06/23 04:30:54;;;;;;;;;;;;;;;23.34;48.76;101467.59;2061310;28;4217;-75
2021/06/23 04:32:20;;;;;;;;;;;;;;;23.34;48.67;101467.59;2062007;28;4245;-74
2021/06/23 04:33:47;;;;;;;;;;;;;;;23.34;48.80;101476.16;2061113;28;5085;-74
2021/06/23 04:35:13;;;;;;;;;;;;;;;23.34;48.72;101476.16;2061251;28;4081;-74
2021/06/23 04:36:40;;;;;;;;;;;;;;;23.34;48.83;101477.00;2060742;28;4184;-74
2021/06/23 04:38:06;;;;;;;;;;;;;;;23.34;48.76;101481.88;2061081;28;4131;-74
2021/06/23 04:39:33;;;;;;;;;;;;;;;23.34;48.76;101477.00;2059861;28;4069;-75
2021/06/23 04:40:59;;;;;;;;;;;;;;;23.35;48.74;101477.88;2061634;28;4027;-74
2021/06/23 04:42:26;;;;;;;;;;;;;;;23.35;48.86;101480.72;2060740;28;3937;-74
2021/06/23 04:43:53;;;;;;;;;;;;;;;23.36;48.78;101481.53;2061742;28;4183;-74
2021/06/23 04:45:20;;;;;;;;;;;;;;;23.35;48.92;101483.56;2060838;28;3894;-73
2021/06/23 04:46:46;;;;;;;;;;;;;;;23.34;48.88;101482.72;2060146;28;4242;-74
2021/06/23 04:48:13;;;;;;;;;;;;;;;23.36;48.85;101487.25;2060312;28;3898;-73
2021/06/23 04:49:40;;;;;;;;;;;;;;;23.34;48.83;101482.72;2058484;28;4267;-77
2021/06/23 04:51:06;;;;;;;;;;;;;;;23.34;48.99;101479.03;2061045;28;3914;-78
2021/06/23 04:52:33;;;;;;;;;;;;;;;23.35;48.96;101486.44;2059744;28;4088;-77
2021/06/23 04:54:00;;;;;;;;;;;;;;;23.36;48.89;101484.41;2057708;28;4243;-74
2021/06/23 04:55:31;;;;;;;;;;;;;;;23.34;48.97;101482.72;2060253;28;4256;-74
2021/06/23 04:56:57;;;;;;;;;;;;;;;23.36;48.95;101492.97;2060176;28;3945;-73
2021/06/23 04:58:23;;;;;;;;;;;;;;;23.34;48.97;101479.84;2061268;28;4168;-72
2021/06/23 04:59:50;;;;;;;;;;;;;;;23.32;49.08;101481.41;2060581;28;4785;-73
2021/06/23 05:01:16;;;;;;;;;;;;;;;23.34;49.02;101484.75;2060740;28;3881;-73
2021/06/23 05:02:43;;;;;;;;;;;;;;;23.33;49.00;101489.63;2059344;28;3999;-74
2021/06/23 05:04:09;;;;;;;;;;;;;;;23.33;49.01;101492.47;2061445;28;4079;-74
2021/06/23 05:05:35;;;;;;;;;;;;;;;23.33;49.01;101498.19;2059704;28;4191;-70
2021/06/23 05:07:04;;;;;;;;;;;;;;;23.33;49.00;101498.19;2060175;28;4100;-69
2021/06/23 05:08:30;;;;;;;;;;;;;;;23.34;49.04;101507.59;2060541;28;4015;-71
2021/06/23 05:09:56;;;;;;;;;;;;;;;23.33;49.06;101501.03;2060517;28;3917;-70
2021/06/23 05:11:23;;;;;;;;;;;;;;;23.33;49.01;101506.75;2059541;28;3873;-70
2021/06/23 05:12:49;;;;;;;;;;;;;;;23.33;49.02;101506.75;2061056;28;4085;-75
2021/06/23 05:14:16;;;;;;;;;;;;;;;23.34;49.15;101501.88;2060834;28;4103;-76
2021/06/23 05:15:43;;;;;;;;;;;;;;;23.33;49.06;101505.94;2060551;28;4020;-75
2021/06/23 05:17:09;;;;;;;;;;;;;;;23.33;49.06;101509.63;2060561;28;3926;-74
2021/06/23 05:18:36;;;;;;;;;;;;;;;23.33;49.02;101501.03;2060242;28;4162;-74
2021/06/23 05:20:03;;;;;;;;;;;;;;;23.34;49.20;101513.28;2060086;28;3901;-74
2021/06/23 05:21:30;;;;;;;;;;;;;;;23.34;49.16;101501.88;2060015;28;4185;-74
2021/06/23 05:22:58;;;;;;;;;;;;;;;23.33;49.06;101501.03;2061360;28;4051;-74
2021/06/23 05:24:24;;;;;;;;;;;;;;;23.34;48.99;101504.72;2060018;28;4008;-76
2021/06/23 05:25:51;;;;;;;;;;;;;;;23.34;49.10;101499.03;2061825;28;4229;-74
2021/06/23 05:27:18;;;;;;;;;;;;;;;23.34;49.18;101501.88;2060773;28;4076;-75
2021/06/23 05:28:45;;;;;;;;;;;;;;;23.34;49.13;101507.59;2059272;28;4022;-73
2021/06/23 05:30:12;;;;;;;;;;;;;;;23.34;49.20;101501.88;2060563;28;4036;-72
2021/06/23 05:31:38;;;;;;;;;;;;;;;23.33;49.14;101498.19;2060670;28;4176;-73
2021/06/23 05:33:05;;;;;;;;;;;;;;;23.33;49.27;101492.47;2060853;28;4424;-73
2021/06/23 05:34:32;;;;;;;;;;;;;;;23.34;49.16;101501.88;2060433;28;4046;-73
2021/06/23 05:35:58;;;;;;;;;;;;;;;23.34;49.21;101504.72;2060082;28;4235;-73
2021/06/23 05:37:24;;;;;;;;;;;;;;;23.33;49.25;101500.22;2060182;28;4162;-73
2021/06/23 05:38:51;;;;;;;;;;;;;;;23.34;49.32;101490.44;2059829;28;4050;-75
2021/06/23 05:40:17;;;;;;;;;;;;;;;23.32;49.28;101505.09;2061051;28;4089;-75
2021/06/23 05:41:43;;;;;;;;;;;;;;;23.34;49.31;101501.88;2059387;28;4015;-74
2021/06/23 05:43:10;;;;;;;;;;;;;;;23.33;49.35;101506.75;2060778;28;3914;-73
2021/06/23 05:44:37;;;;;;;;;;;;;;;23.34;49.22;101507.59;2060447;28;4016;-75
2021/06/23 05:46:04;;;;;;;;;;;;;;;23.34;49.29;101507.59;2060587;28;3912;-70
2021/06/23 05:47:31;;;;;;;;;;;;;;;23.32;49.34;101507.09;2060009;28;4367;-70
2021/06/23 05:48:57;;;;;;;;;;;;;;;23.33;49.30;101512.47;2060786;28;4080;-71
2021/06/23 05:50:24;;;;;;;;;;;;;;;23.33;49.30;101511.63;2059952;28;3964;-69
2021/06/23 05:51:51;;;;;;;;;;;;;;;23.33;49.39;101514.50;2058867;28;4226;-72
2021/06/23 05:53:18;;;;;;;;;;;;;;;23.33;49.43;101515.31;2061596;28;3892;-74
2021/06/23 05:54:44;;;;;;;;;;;;;;;23.33;49.30;101517.34;2060464;28;6166;-74
2021/06/23 05:56:13;;;;;;;;;;;;;;;23.33;49.45;101523.88;2061383;28;4118;-74
2021/06/23 05:57:40;;;;;;;;;;;;;;;23.33;49.54;101518.19;2060560;28;4377;-74
2021/06/23 05:59:06;;;;;;;;;;;;;;;23.33;49.48;101528.78;2061792;28;4151;-74
2021/06/23 06:00:32;;;;;;;;;;;;;;;23.34;49.38;101531.25;2061516;28;4304;-74
2021/06/23 06:01:59;;;;;;;;;;;;;;;23.33;49.48;101534.47;2056425;28;4077;-74
2021/06/23 06:03:26;;;;;;;;;;;;;;;23.33;49.36;101532.44;2058000;28;3754;-75
2021/06/23 06:04:52;;;;;;;;;;;;;;;23.33;49.49;101541.03;2059450;28;4092;-74
2021/06/23 06:06:18;;;;;;;;;;;;;;;23.33;49.64;101545.91;2060662;28;4081;-74
2021/06/23 06:07:44;;;;;;;;;;;;;;;23.33;49.39;101534.47;2060441;28;4266;-74
2021/06/23 06:09:11;;;;;;;;;;;;;;;23.33;49.52;101540.19;2060817;28;4430;-74
2021/06/23 06:10:37;;;;;;;;;;;;;;;23.34;49.52;101553.28;2061014;28;4181;-75
2021/06/23 06:12:03;;;;;;;;;;;;;;;23.33;49.56;101563.88;2060531;28;3978;-75
2021/06/23 06:13:29;;;;;;;;;;;;;;;23.33;49.46;101555.31;2060155;28;4104;-76
2021/06/23 06:14:55;;;;;;;;;;;;;;;23.33;49.50;101551.63;2060039;28;4260;-75
2021/06/23 06:16:22;;;;;;;;;;;;;;;23.33;49.58;101546.72;2060883;28;3925;-74
2021/06/23 06:17:48;;;;;;;;;;;;;;;23.33;49.57;101548.75;2061124;28;4320;-74
2021/06/23 06:19:15;;;;;;;;;;;;;;;23.33;49.52;101543.06;2060509;28;4008;-75
2021/06/23 06:20:41;;;;;;;;;;;;;;;23.33;49.62;101537.34;2060026;28;4230;-72
2021/06/23 06:22:07;;;;;;;;;;;;;;;23.33;49.49;101555.31;2060224;28;4166;-73
2021/06/23 06:23:35;;;;;;;;;;;;;;;23.33;49.63;101549.59;2059222;28;4121;-73
2021/06/23 06:25:02;;;;;;;;;;;;;;;23.34;49.56;101550.41;2061042;28;4096;-72
2021/06/23 06:26:29;;;;;;;;;;;;;;;23.33;49.58;101552.44;2060341;28;4042;-72
2021/06/23 06:27:56;;;;;;;;;;;;;;;23.33;49.67;101546.72;2061104;28;4234;-72
2021/06/23 06:29:22;;;;;;;;;;;;;;;23.32;49.60;101550.78;2061549;28;4364;-72
2021/06/23 06:30:48;;;;;;;;;;;;;;;23.33;49.60;101557.31;2059038;28;4294;-71
2021/06/23 06:32:15;;;;;;;;;;;;;;;23.33;49.69;101554.47;2059926;28;4275;-71
2021/06/23 06:33:42;;;;;;;;;;;;;;;23.34;49.67;101558.97;2060109;28;4227;-72
2021/06/23 06:35:09;;;;;;;;;;;;;;;23.34;49.65;101556.13;2060571;28;4068;-72
2021/06/23 06:36:36;;;;;;;;;;;;;;;23.33;49.56;101552.44;2060096;28;4260;-72
2021/06/23 06:38:03;;;;;;;;;;;;;;;23.33;49.75;101554.47;2061143;28;3954;-72
2021/06/23 06:39:29;;;;;;;;;;;;;;;23.33;49.63;101551.63;2060214;28;3881;-72
2021/06/23 06:40:54;;;;;;;;;;;;;;;23.33;49.79;101554.47;2059374;28;4027;-72
2021/06/23 06:42:21;;;;;;;;;;;;;;;23.32;49.63;101555.63;2061040;28;4248;-73
2021/06/23 06:43:48;;;;;;;;;;;;;;;23.33;49.69;101551.63;2058375;28;4256;-75
2021/06/23 06:45:15;;;;;;;;;;;;;;;23.33;49.73;101560.19;2061245;28;3888;-74
2021/06/23 06:46:42;;;;;;;;;;;;;;;23.32;49.62;101558.50;2058932;28;4877;-73
2021/06/23 06:48:09;;;;;;;;;;;;;;;23.33;49.78;101565.88;2060757;28;4059;-74
2021/06/23 06:49:35;;;;;;;;;;;;;;;23.32;49.67;101561.34;2061659;28;4233;-75
2021/06/23 06:51:02;;;;;;;;;;;;;;;23.32;49.81;101562.22;2061921;28;3980;-75
2021/06/23 06:52:29;;;;;;;;;;;;;;;23.33;49.67;101566.72;2062183;28;4200;-74
2021/06/23 06:53:55;;;;;;;;;;;;;;;23.32;49.80;101562.22;2061442;28;4219;-77
2021/06/23 06:55:22;;;;;;;;;;;;;;;23.33;49.71;101563.03;2063242;28;3768;-68
2021/06/23 06:56:49;;;;;;;;;;;;;;;23.32;49.73;101562.22;2061212;28;4048;-77
2021/06/23 06:58:15;;;;;;;;;;;;;;;23.32;49.72;101556.50;2062221;28;4049;-85
2021/06/23 06:59:42;;;;;;;;;;;;;;;23.32;49.76;101562.22;2061549;28;4218;-84
2021/06/23 07:01:08;;;;;;;;;;;;;;;23.32;49.90;101562.22;2062420;28;3882;-82
2021/06/23 07:02:35;;;;;;;;;;;;;;;23.32;49.78;101562.22;2061816;28;4192;-81
2021/06/23 07:04:02;;;;;;;;;;;;;;;23.32;49.79;101562.22;2060892;28;3989;-84
2021/06/23 07:05:29;;;;;;;;;;;;;;;23.33;49.84;101563.03;2060943;28;3838;-80
2021/06/23 07:06:55;;;;;;;;;;;;;;;23.32;49.75;101561.34;2060485;28;5242;-82
2021/06/23 07:08:22;;;;;;;;;;;;;;;23.31;49.79;101556.84;2061589;28;4371;-82
2021/06/23 07:09:48;;;;;;;;;;;;;;;23.32;49.67;101561.34;2060981;28;4034;-80
2021/06/23 07:11:14;;;;;;;;;;;;;;;23.32;49.92;101562.22;2061732;28;4431;-80
2021/06/23 07:12:40;;;;;;;;;;;;;;;23.32;49.72;101564.19;2062033;28;4188;-81
2021/06/23 07:14:07;;;;;;;;;;;;;;;23.31;49.87;101577.66;2061879;28;4017;-82
2021/06/23 07:15:34;;;;;;;;;;;;;;;23.32;49.76;101567.91;2059789;28;4808;-81
2021/06/23 07:17:01;;;;;;;;;;;;;;;23.31;49.78;101569.09;2061509;28;3986;-81
2021/06/23 07:18:28;;;;;;;;;;;;;;;23.32;49.77;101569.91;2062169;28;4131;-81
2021/06/23 07:19:53;;;;;;;;;;;;;;;23.31;49.91;101580.50;2061865;28;4354;-81
2021/06/23 07:21:22;;;;;;;;;;;;;;;23.32;49.88;101567.06;2061563;28;3919;-81
2021/06/23 07:22:52;;;;;;;;;;;;;;;23.33;49.80;101571.59;2060940;28;4209;-81
2021/06/23 07:24:19;;;;;;;;;;;;;;;23.32;49.92;101578.47;2061991;28;4114;-80
2021/06/23 07:25:46;;;;;;;;;;;;;;;23.31;49.86;101576.81;2061351;28;4212;-79
2021/06/23 07:27:13;;;;;;;;;;;;;;;23.32;49.83;101578.47;2062024;28;3798;-82
2021/06/23 07:28:47;;;;;;;;;;;;;;;23.32;49.81;101581.34;2060622;28;4047;-80
2021/06/23 07:30:14;;;;;;;;;;;;;;;23.31;49.84;101576.81;2062513;28;3901;-78
2021/06/23 07:33:13;;;;;;;;;;;;;;;23.31;49.87;101588.25;2061410;28;3808;-77